Thursday, November 23, 2017, 7:21 AM GMT
Back to Local

CWWE, Western Head, N. S.

Location: , , Canada Lat: 43.983
Local Time: 7:21 AM GMT ( 7:21 GMT) Lon: -64.667
Time Zone: GMT Elev: 29 ft

Show me the last for .
Show Decoded

2017-11-23 07:00 METAR CWWE 230700Z AUTO 29018G28KT 07/06 RMK AO1 PRESRR SOG 138 3011 PK WND
                 31028/0654 SLP950 T00700063 =
2017-11-23 06:00 METAR CWWE 230600Z AUTO 30022G34KT 09/09 RMK AO1 0PAST HR 5044 PK WND 29034/0553
                 SLP912 P0004 T00890086 50478 =
2017-11-23 05:00 METAR CWWE 230500Z AUTO 35009KT 13/13 RMK AO1 5PAST HR PRESFR 6111 PK WND
                 35020/0433 SLP893 P0099 T01290128 50467 =
2017-11-23 04:00 METAR CWWE 230400Z AUTO 11015KT 13/13 RMK AO1 1PAST HR 6098 PK WND 15048/0304
                 SLP939 P0043 T01290126 50212 =
2017-11-23 03:00 METAR CWWE 230300Z AUTO 15041G50KT 13/13 RMK AO1 2PAST HR PRESFR 8108 PK WND
                 16050/0253 SLP956 P0012 T01320128 50101 =
2017-11-23 02:00 METAR CWWE 230200Z AUTO 15021G26KT 13/13 RMK AO1 7PAST HR PRESFR 8071 PK WND
                 15028/0142 SLP004 P0011 T01310128 50069 =
2017-11-23 01:00 METAR CWWE 230100Z AUTO 16016G24KT 13/13 RMK AO1 2PAST HR PRESFR 8058 PK WND
                 17027/0010 SLP037 P0016 T01300127 50042 =
2017-11-23 00:00 METAR CWWE 230000Z AUTO 16020G26KT 13/13 RMK AO1 1PAST HR 6048 PK WND 15032/2347
                 SLP064 P0008 T01320129 50021 =
2017-11-22 23:00 METAR CWWE 222300Z AUTO 15020KT 13/12 RMK AO1 PRESFR PK WND 15023/2211 SLP075
                 T01270120 58054 =
2017-11-22 22:00 METAR CWWE 222200Z AUTO 15016KT 13/12 RMK AO1 PK WND 15020/2149 SLP095 T01260118
                 58046 =
2017-11-22 21:00 METAR CWWE 222100Z AUTO 14015KT 13/12 RMK AO1 PK WND 15018/2050 SLP112 T01260116
                 58045 =
2017-11-22 20:00 METAR CWWE 222000Z AUTO 15012KT 13/12 RMK AO1 SLP129 T01250115 58036 =
2017-11-22 19:00 METAR CWWE 221900Z AUTO 15002KT 13/12 RMK AO1 SLP141 T01310116 58033 =
2017-11-22 18:00 METAR CWWE 221800Z AUTO 17003KT 13/11 RMK AO1 SLP157 T01320113 56030 =
2017-11-22 17:00 METAR CWWE 221700Z AUTO 17006KT 13/11 RMK AO1 SLP165 T01270112 58026 =
2017-11-22 16:00 METAR CWWE 221600Z AUTO 15006KT 13/12 RMK AO1 SLP174 T01250119 58018 =
2017-11-22 15:00 METAR CWWE 221500Z AUTO 19006KT 14/12 RMK AO1 SLP187 T01370117 58007 =
2017-11-22 14:00 METAR CWWE 221400Z AUTO 19007KT 12/11 RMK AO1 SLP191 T01160109 50002 =
2017-11-22 13:00 METAR CWWE 221300Z AUTO 21007KT 11/10 RMK AO1 SLP192 T01120095 50007 =
2017-11-22 12:00 METAR CWWE 221200Z AUTO 22007KT 11/10 RMK AO1 SLP194 T01070100 53009 =
2017-11-22 11:00 METAR CWWE 221100Z AUTO 21007KT 10/09 RMK AO1 SLP189 T01030094 53003 =
2017-11-22 10:00 METAR CWWE 221000Z AUTO 22012KT 11/10 RMK AO1 SLP185 T01090098 56007 =
2017-11-22 09:00 METAR CWWE 220900Z AUTO 23013KT 11/10 RMK AO1 PK WND 23020/0811 SLP185 T01080098
                 56011 =
2017-11-22 08:00 METAR CWWE 220800Z AUTO 22014KT 11/10 RMK AO1 PK WND 22019/0755 SLP186 T01080099
                 58013 =

Support USWX by starting your Amazon purchase here.